sensor_id;sensor_type;location;lat;lon;timestamp;P1;durP1;ratioP1;P2;durP2;ratioP2
23080;SDS011;72373;50.562;8.498;2023-12-14T00:01:50;19.13;;;9.20;;
23080;SDS011;72373;50.562;8.498;2023-12-14T00:04:15;17.75;;;8.43;;
23080;SDS011;72373;50.562;8.498;2023-12-14T00:06:41;13.55;;;8.20;;
23080;SDS011;72373;50.562;8.498;2023-12-14T00:09:06;16.77;;;9.60;;
23080;SDS011;72373;50.562;8.498;2023-12-14T00:11:35;15.50;;;8.77;;
23080;SDS011;72373;50.562;8.498;2023-12-14T00:14:03;17.25;;;9.27;;
23080;SDS011;72373;50.562;8.498;2023-12-14T00:16:29;18.42;;;9.00;;
23080;SDS011;72373;50.562;8.498;2023-12-14T00:18:55;16.75;;;9.75;;
23080;SDS011;72373;50.562;8.498;2023-12-14T00:21:20;17.73;;;9.00;;
23080;SDS011;72373;50.562;8.498;2023-12-14T00:23:46;18.73;;;9.43;;
23080;SDS011;72373;50.562;8.498;2023-12-14T00:26:11;21.45;;;9.77;;
23080;SDS011;72373;50.562;8.498;2023-12-14T00:28:37;19.65;;;9.70;;
23080;SDS011;72373;50.562;8.498;2023-12-14T00:31:03;25.58;;;9.57;;
23080;SDS011;72373;50.562;8.498;2023-12-14T00:33:29;25.20;;;11.00;;
23080;SDS011;72373;50.562;8.498;2023-12-14T00:35:54;28.30;;;10.75;;
23080;SDS011;72373;50.562;8.498;2023-12-14T00:38:20;21.95;;;9.70;;
23080;SDS011;72373;50.562;8.498;2023-12-14T00:40:45;22.02;;;9.80;;
23080;SDS011;72373;50.562;8.498;2023-12-14T00:43:11;19.52;;;9.20;;
23080;SDS011;72373;50.562;8.498;2023-12-14T00:45:36;22.85;;;9.02;;
23080;SDS011;72373;50.562;8.498;2023-12-14T00:48:02;16.85;;;8.23;;
23080;SDS011;72373;50.562;8.498;2023-12-14T00:50:27;18.23;;;8.48;;
23080;SDS011;72373;50.562;8.498;2023-12-14T00:52:53;21.02;;;8.85;;
23080;SDS011;72373;50.562;8.498;2023-12-14T00:55:18;18.45;;;8.35;;
23080;SDS011;72373;50.562;8.498;2023-12-14T00:57:44;19.40;;;9.05;;
23080;SDS011;72373;50.562;8.498;2023-12-14T01:00:10;19.67;;;9.30;;
23080;SDS011;72373;50.562;8.498;2023-12-14T01:02:36;20.17;;;9.63;;
23080;SDS011;72373;50.562;8.498;2023-12-14T01:05:02;18.95;;;8.85;;
23080;SDS011;72373;50.562;8.498;2023-12-14T01:07:27;21.73;;;9.52;;
23080;SDS011;72373;50.562;8.498;2023-12-14T01:09:53;18.63;;;9.20;;
23080;SDS011;72373;50.562;8.498;2023-12-14T01:12:18;15.75;;;8.35;;
23080;SDS011;72373;50.562;8.498;2023-12-14T01:14:44;22.27;;;9.48;;
23080;SDS011;72373;50.562;8.498;2023-12-14T01:17:09;19.95;;;9.52;;
23080;SDS011;72373;50.562;8.498;2023-12-14T01:19:35;18.85;;;9.27;;
23080;SDS011;72373;50.562;8.498;2023-12-14T01:22:00;19.35;;;9.35;;
23080;SDS011;72373;50.562;8.498;2023-12-14T01:24:26;17.17;;;8.43;;
23080;SDS011;72373;50.562;8.498;2023-12-14T01:26:51;14.90;;;8.88;;
23080;SDS011;72373;50.562;8.498;2023-12-14T01:29:17;17.98;;;8.93;;
23080;SDS011;72373;50.562;8.498;2023-12-14T01:31:42;16.60;;;8.27;;
23080;SDS011;72373;50.562;8.498;2023-12-14T01:34:08;16.60;;;8.15;;
23080;SDS011;72373;50.562;8.498;2023-12-14T01:36:35;19.48;;;9.00;;
23080;SDS011;72373;50.562;8.498;2023-12-14T01:39:00;14.15;;;8.05;;
23080;SDS011;72373;50.562;8.498;2023-12-14T01:41:26;17.27;;;8.55;;
23080;SDS011;72373;50.562;8.498;2023-12-14T01:43:51;15.10;;;8.27;;
23080;SDS011;72373;50.562;8.498;2023-12-14T01:46:17;14.80;;;7.50;;
23080;SDS011;72373;50.562;8.498;2023-12-14T01:48:42;16.35;;;8.32;;
23080;SDS011;72373;50.562;8.498;2023-12-14T01:51:08;16.08;;;8.10;;
23080;SDS011;72373;50.562;8.498;2023-12-14T01:53:33;16.75;;;8.40;;
23080;SDS011;72373;50.562;8.498;2023-12-14T01:55:59;15.40;;;8.13;;
23080;SDS011;72373;50.562;8.498;2023-12-14T01:58:24;15.82;;;7.55;;
23080;SDS011;72373;50.562;8.498;2023-12-14T02:01:05;14.07;;;7.53;;
23080;SDS011;72373;50.562;8.498;2023-12-14T02:03:50;13.98;;;8.23;;
23080;SDS011;72373;50.562;8.498;2023-12-14T02:06:17;14.65;;;7.88;;
23080;SDS011;72373;50.562;8.498;2023-12-14T02:08:43;14.32;;;7.40;;
23080;SDS011;72373;50.562;8.498;2023-12-14T02:11:08;15.10;;;7.68;;
23080;SDS011;72373;50.562;8.498;2023-12-14T02:13:34;15.75;;;8.55;;
23080;SDS011;72373;50.562;8.498;2023-12-14T02:15:59;14.07;;;7.40;;
23080;SDS011;72373;50.562;8.498;2023-12-14T02:18:25;18.08;;;8.27;;
23080;SDS011;72373;50.562;8.498;2023-12-14T02:20:50;16.35;;;8.10;;
23080;SDS011;72373;50.562;8.498;2023-12-14T02:23:16;15.55;;;8.43;;
23080;SDS011;72373;50.562;8.498;2023-12-14T02:25:42;15.68;;;8.13;;
23080;SDS011;72373;50.562;8.498;2023-12-14T02:28:07;16.73;;;8.55;;
23080;SDS011;72373;50.562;8.498;2023-12-14T02:30:33;19.80;;;9.10;;
23080;SDS011;72373;50.562;8.498;2023-12-14T02:32:58;17.60;;;8.82;;
23080;SDS011;72373;50.562;8.498;2023-12-14T02:35:24;19.17;;;9.13;;
23080;SDS011;72373;50.562;8.498;2023-12-14T02:37:50;16.20;;;8.15;;
23080;SDS011;72373;50.562;8.498;2023-12-14T02:40:15;16.40;;;7.75;;
23080;SDS011;72373;50.562;8.498;2023-12-14T02:42:41;14.80;;;7.22;;
23080;SDS011;72373;50.562;8.498;2023-12-14T02:45:07;17.85;;;8.75;;
23080;SDS011;72373;50.562;8.498;2023-12-14T02:47:33;14.88;;;8.00;;
23080;SDS011;72373;50.562;8.498;2023-12-14T02:49:59;14.82;;;7.90;;
23080;SDS011;72373;50.562;8.498;2023-12-14T02:52:24;16.95;;;8.70;;
23080;SDS011;72373;50.562;8.498;2023-12-14T02:54:50;16.85;;;8.07;;
23080;SDS011;72373;50.562;8.498;2023-12-14T02:57:15;15.43;;;8.10;;
23080;SDS011;72373;50.562;8.498;2023-12-14T02:59:41;15.23;;;7.65;;
23080;SDS011;72373;50.562;8.498;2023-12-14T03:02:06;14.25;;;8.13;;
23080;SDS011;72373;50.562;8.498;2023-12-14T03:04:32;13.50;;;7.88;;
23080;SDS011;72373;50.562;8.498;2023-12-14T03:06:58;15.30;;;7.80;;
23080;SDS011;72373;50.562;8.498;2023-12-14T03:09:27;15.68;;;8.32;;
23080;SDS011;72373;50.562;8.498;2023-12-14T03:11:53;12.80;;;6.93;;
23080;SDS011;72373;50.562;8.498;2023-12-14T03:14:18;16.55;;;7.55;;
23080;SDS011;72373;50.562;8.498;2023-12-14T03:16:44;13.98;;;7.10;;
23080;SDS011;72373;50.562;8.498;2023-12-14T03:19:10;17.63;;;8.73;;
23080;SDS011;72373;50.562;8.498;2023-12-14T03:21:35;16.20;;;8.15;;
23080;SDS011;72373;50.562;8.498;2023-12-14T03:24:01;20.23;;;7.93;;
23080;SDS011;72373;50.562;8.498;2023-12-14T03:26:26;18.10;;;8.50;;
23080;SDS011;72373;50.562;8.498;2023-12-14T03:28:52;15.23;;;8.20;;
23080;SDS011;72373;50.562;8.498;2023-12-14T03:31:17;15.93;;;7.60;;
23080;SDS011;72373;50.562;8.498;2023-12-14T03:33:43;14.13;;;7.90;;
23080;SDS011;72373;50.562;8.498;2023-12-14T03:36:08;17.52;;;8.77;;
23080;SDS011;72373;50.562;8.498;2023-12-14T03:38:34;16.15;;;8.40;;
23080;SDS011;72373;50.562;8.498;2023-12-14T03:40:59;17.80;;;8.93;;
23080;SDS011;72373;50.562;8.498;2023-12-14T03:43:26;13.02;;;7.07;;
23080;SDS011;72373;50.562;8.498;2023-12-14T03:45:51;15.68;;;8.38;;
23080;SDS011;72373;50.562;8.498;2023-12-14T03:48:17;15.73;;;7.70;;
23080;SDS011;72373;50.562;8.498;2023-12-14T03:50:42;19.50;;;9.40;;
23080;SDS011;72373;50.562;8.498;2023-12-14T03:53:08;15.25;;;8.00;;
23080;SDS011;72373;50.562;8.498;2023-12-14T03:55:33;15.10;;;8.00;;
23080;SDS011;72373;50.562;8.498;2023-12-14T03:57:59;19.98;;;9.15;;
23080;SDS011;72373;50.562;8.498;2023-12-14T04:00:24;19.95;;;8.45;;
23080;SDS011;72373;50.562;8.498;2023-12-14T04:02:50;20.15;;;8.75;;
23080;SDS011;72373;50.562;8.498;2023-12-14T04:05:16;17.02;;;8.35;;
23080;SDS011;72373;50.562;8.498;2023-12-14T04:07:41;17.50;;;8.73;;
23080;SDS011;72373;50.562;8.498;2023-12-14T04:12:34;17.40;;;8.60;;
23080;SDS011;72373;50.562;8.498;2023-12-14T04:15:03;16.58;;;8.23;;
23080;SDS011;72373;50.562;8.498;2023-12-14T04:17:32;16.42;;;8.52;;
23080;SDS011;72373;50.562;8.498;2023-12-14T04:19:58;17.05;;;8.52;;
23080;SDS011;72373;50.562;8.498;2023-12-14T04:22:24;19.92;;;9.32;;
23080;SDS011;72373;50.562;8.498;2023-12-14T04:24:50;19.48;;;8.88;;
23080;SDS011;72373;50.562;8.498;2023-12-14T04:27:16;18.77;;;8.65;;
23080;SDS011;72373;50.562;8.498;2023-12-14T04:29:42;16.20;;;8.13;;
23080;SDS011;72373;50.562;8.498;2023-12-14T04:32:08;16.05;;;8.30;;
23080;SDS011;72373;50.562;8.498;2023-12-14T04:34:33;16.90;;;9.18;;
23080;SDS011;72373;50.562;8.498;2023-12-14T04:36:59;18.15;;;8.65;;
23080;SDS011;72373;50.562;8.498;2023-12-14T04:39:25;20.08;;;8.70;;
23080;SDS011;72373;50.562;8.498;2023-12-14T04:41:51;19.15;;;10.10;;
23080;SDS011;72373;50.562;8.498;2023-12-14T04:44:17;19.00;;;9.13;;
23080;SDS011;72373;50.562;8.498;2023-12-14T04:46:43;17.60;;;8.85;;
23080;SDS011;72373;50.562;8.498;2023-12-14T04:49:09;19.75;;;9.48;;
23080;SDS011;72373;50.562;8.498;2023-12-14T04:51:35;19.15;;;8.98;;
23080;SDS011;72373;50.562;8.498;2023-12-14T04:54:01;18.58;;;9.23;;
23080;SDS011;72373;50.562;8.498;2023-12-14T04:56:27;16.85;;;8.68;;
23080;SDS011;72373;50.562;8.498;2023-12-14T04:58:52;16.63;;;8.95;;
23080;SDS011;72373;50.562;8.498;2023-12-14T05:01:18;24.88;;;9.80;;
23080;SDS011;72373;50.562;8.498;2023-12-14T05:03:43;16.83;;;8.13;;
23080;SDS011;72373;50.562;8.498;2023-12-14T05:06:09;20.33;;;9.40;;
23080;SDS011;72373;50.562;8.498;2023-12-14T05:08:34;19.80;;;8.68;;
23080;SDS011;72373;50.562;8.498;2023-12-14T05:11:00;15.60;;;8.93;;
23080;SDS011;72373;50.562;8.498;2023-12-14T05:13:26;21.38;;;9.52;;
23080;SDS011;72373;50.562;8.498;2023-12-14T05:15:51;19.67;;;10.13;;
23080;SDS011;72373;50.562;8.498;2023-12-14T05:18:20;17.80;;;9.02;;
23080;SDS011;72373;50.562;8.498;2023-12-14T05:20:46;18.70;;;9.27;;
23080;SDS011;72373;50.562;8.498;2023-12-14T05:23:11;17.20;;;9.70;;
23080;SDS011;72373;50.562;8.498;2023-12-14T05:25:37;18.73;;;9.65;;
23080;SDS011;72373;50.562;8.498;2023-12-14T05:28:03;17.45;;;9.02;;
23080;SDS011;72373;50.562;8.498;2023-12-14T05:30:29;18.00;;;9.45;;
23080;SDS011;72373;50.562;8.498;2023-12-14T05:32:55;21.23;;;9.82;;
23080;SDS011;72373;50.562;8.498;2023-12-14T05:35:20;19.85;;;9.70;;
23080;SDS011;72373;50.562;8.498;2023-12-14T05:37:46;19.25;;;9.45;;
23080;SDS011;72373;50.562;8.498;2023-12-14T05:40:12;19.38;;;9.60;;
23080;SDS011;72373;50.562;8.498;2023-12-14T05:42:37;18.95;;;9.80;;
23080;SDS011;72373;50.562;8.498;2023-12-14T05:45:04;23.17;;;10.23;;
23080;SDS011;72373;50.562;8.498;2023-12-14T05:47:30;24.55;;;9.95;;
23080;SDS011;72373;50.562;8.498;2023-12-14T05:49:57;20.55;;;10.93;;
23080;SDS011;72373;50.562;8.498;2023-12-14T05:52:24;21.92;;;11.07;;
23080;SDS011;72373;50.562;8.498;2023-12-14T05:54:49;21.52;;;10.93;;
23080;SDS011;72373;50.562;8.498;2023-12-14T05:57:15;21.70;;;10.13;;
23080;SDS011;72373;50.562;8.498;2023-12-14T05:59:40;22.10;;;9.93;;
23080;SDS011;72373;50.562;8.498;2023-12-14T06:02:06;24.27;;;11.20;;
23080;SDS011;72373;50.562;8.498;2023-12-14T06:04:32;18.83;;;9.93;;
23080;SDS011;72373;50.562;8.498;2023-12-14T06:06:57;23.98;;;11.13;;
23080;SDS011;72373;50.562;8.498;2023-12-14T06:09:23;21.48;;;9.82;;
23080;SDS011;72373;50.562;8.498;2023-12-14T06:11:54;20.83;;;10.52;;
23080;SDS011;72373;50.562;8.498;2023-12-14T06:14:20;27.65;;;12.02;;
23080;SDS011;72373;50.562;8.498;2023-12-14T06:16:46;22.65;;;11.20;;
23080;SDS011;72373;50.562;8.498;2023-12-14T06:19:11;24.35;;;10.82;;
23080;SDS011;72373;50.562;8.498;2023-12-14T06:21:37;22.10;;;10.73;;
23080;SDS011;72373;50.562;8.498;2023-12-14T06:24:02;22.33;;;10.07;;
23080;SDS011;72373;50.562;8.498;2023-12-14T06:26:28;28.45;;;11.13;;
23080;SDS011;72373;50.562;8.498;2023-12-14T06:28:54;28.23;;;11.82;;
23080;SDS011;72373;50.562;8.498;2023-12-14T06:31:19;24.52;;;11.55;;
23080;SDS011;72373;50.562;8.498;2023-12-14T06:33:46;23.80;;;11.30;;
23080;SDS011;72373;50.562;8.498;2023-12-14T06:36:13;28.83;;;12.80;;
23080;SDS011;72373;50.562;8.498;2023-12-14T06:38:42;28.23;;;11.98;;
23080;SDS011;72373;50.562;8.498;2023-12-14T06:41:07;27.25;;;11.68;;
23080;SDS011;72373;50.562;8.498;2023-12-14T06:43:34;25.15;;;11.52;;
23080;SDS011;72373;50.562;8.498;2023-12-14T06:45:59;23.98;;;10.80;;
23080;SDS011;72373;50.562;8.498;2023-12-14T06:48:25;23.27;;;10.88;;
23080;SDS011;72373;50.562;8.498;2023-12-14T06:50:50;24.90;;;11.57;;
23080;SDS011;72373;50.562;8.498;2023-12-14T06:53:16;24.33;;;12.18;;
23080;SDS011;72373;50.562;8.498;2023-12-14T06:55:41;22.38;;;11.57;;
23080;SDS011;72373;50.562;8.498;2023-12-14T06:58:07;28.58;;;12.50;;
23080;SDS011;72373;50.562;8.498;2023-12-14T07:00:36;20.95;;;10.70;;
23080;SDS011;72373;50.562;8.498;2023-12-14T07:03:02;22.02;;;11.27;;
23080;SDS011;72373;50.562;8.498;2023-12-14T07:05:28;25.83;;;12.05;;
23080;SDS011;72373;50.562;8.498;2023-12-14T07:07:54;25.17;;;11.75;;
23080;SDS011;72373;50.562;8.498;2023-12-14T07:10:21;22.40;;;11.52;;
23080;SDS011;72373;50.562;8.498;2023-12-14T07:12:47;22.73;;;10.32;;
23080;SDS011;72373;50.562;8.498;2023-12-14T07:15:12;25.38;;;11.68;;
23080;SDS011;72373;50.562;8.498;2023-12-14T07:17:38;24.20;;;11.88;;
23080;SDS011;72373;50.562;8.498;2023-12-14T07:20:04;24.38;;;11.18;;
23080;SDS011;72373;50.562;8.498;2023-12-14T07:22:31;21.52;;;10.93;;
23080;SDS011;72373;50.562;8.498;2023-12-14T07:24:56;23.90;;;11.00;;
23080;SDS011;72373;50.562;8.498;2023-12-14T07:27:22;23.02;;;11.43;;
23080;SDS011;72373;50.562;8.498;2023-12-14T07:29:47;24.35;;;12.27;;
23080;SDS011;72373;50.562;8.498;2023-12-14T07:32:13;20.60;;;10.73;;
23080;SDS011;72373;50.562;8.498;2023-12-14T07:34:38;23.40;;;11.75;;
23080;SDS011;72373;50.562;8.498;2023-12-14T07:37:04;27.35;;;11.32;;
23080;SDS011;72373;50.562;8.498;2023-12-14T07:39:30;23.35;;;11.20;;
23080;SDS011;72373;50.562;8.498;2023-12-14T07:41:56;22.60;;;10.30;;
23080;SDS011;72373;50.562;8.498;2023-12-14T07:44:22;22.73;;;11.15;;
23080;SDS011;72373;50.562;8.498;2023-12-14T07:46:50;22.55;;;11.75;;
23080;SDS011;72373;50.562;8.498;2023-12-14T07:49:16;21.95;;;10.60;;
23080;SDS011;72373;50.562;8.498;2023-12-14T07:51:45;20.52;;;10.82;;
23080;SDS011;72373;50.562;8.498;2023-12-14T07:54:11;22.92;;;11.02;;
23080;SDS011;72373;50.562;8.498;2023-12-14T07:56:36;22.60;;;11.60;;
23080;SDS011;72373;50.562;8.498;2023-12-14T07:59:02;21.77;;;12.05;;
23080;SDS011;72373;50.562;8.498;2023-12-14T08:01:31;19.55;;;11.57;;
23080;SDS011;72373;50.562;8.498;2023-12-14T08:03:57;21.25;;;11.57;;
23080;SDS011;72373;50.562;8.498;2023-12-14T08:06:22;21.58;;;11.07;;
23080;SDS011;72373;50.562;8.498;2023-12-14T08:08:48;23.88;;;11.88;;
23080;SDS011;72373;50.562;8.498;2023-12-14T08:11:13;23.15;;;11.95;;
23080;SDS011;72373;50.562;8.498;2023-12-14T08:13:39;22.75;;;11.82;;
23080;SDS011;72373;50.562;8.498;2023-12-14T08:16:05;21.63;;;11.05;;
23080;SDS011;72373;50.562;8.498;2023-12-14T08:18:31;20.90;;;11.10;;
23080;SDS011;72373;50.562;8.498;2023-12-14T08:20:57;25.35;;;11.13;;
23080;SDS011;72373;50.562;8.498;2023-12-14T08:23:23;27.15;;;12.15;;
23080;SDS011;72373;50.562;8.498;2023-12-14T08:25:50;21.85;;;11.93;;
23080;SDS011;72373;50.562;8.498;2023-12-14T08:28:16;18.38;;;10.43;;
23080;SDS011;72373;50.562;8.498;2023-12-14T08:30:41;26.25;;;11.77;;
23080;SDS011;72373;50.562;8.498;2023-12-14T08:33:07;20.50;;;12.00;;
23080;SDS011;72373;50.562;8.498;2023-12-14T08:35:32;23.10;;;13.15;;
23080;SDS011;72373;50.562;8.498;2023-12-14T08:37:58;27.02;;;13.25;;
23080;SDS011;72373;50.562;8.498;2023-12-14T08:40:23;23.15;;;12.82;;
23080;SDS011;72373;50.562;8.498;2023-12-14T08:42:49;29.05;;;13.18;;
23080;SDS011;72373;50.562;8.498;2023-12-14T08:45:14;24.13;;;12.45;;
23080;SDS011;72373;50.562;8.498;2023-12-14T08:47:40;25.85;;;12.95;;
23080;SDS011;72373;50.562;8.498;2023-12-14T08:50:06;26.10;;;13.07;;
23080;SDS011;72373;50.562;8.498;2023-12-14T08:52:32;23.23;;;12.07;;
23080;SDS011;72373;50.562;8.498;2023-12-14T08:54:58;22.38;;;12.18;;
23080;SDS011;72373;50.562;8.498;2023-12-14T08:57:23;21.15;;;10.85;;
23080;SDS011;72373;50.562;8.498;2023-12-14T08:59:49;26.27;;;12.95;;
23080;SDS011;72373;50.562;8.498;2023-12-14T09:02:14;26.10;;;12.20;;
23080;SDS011;72373;50.562;8.498;2023-12-14T09:04:40;22.63;;;12.35;;
23080;SDS011;72373;50.562;8.498;2023-12-14T09:07:06;28.83;;;11.75;;
23080;SDS011;72373;50.562;8.498;2023-12-14T09:09:31;32.08;;;12.30;;
23080;SDS011;72373;50.562;8.498;2023-12-14T09:11:57;25.83;;;11.82;;
23080;SDS011;72373;50.562;8.498;2023-12-14T09:14:23;24.60;;;11.88;;
23080;SDS011;72373;50.562;8.498;2023-12-14T09:16:48;25.30;;;12.40;;
23080;SDS011;72373;50.562;8.498;2023-12-14T09:19:14;20.67;;;10.85;;
23080;SDS011;72373;50.562;8.498;2023-12-14T09:21:39;24.52;;;11.27;;
23080;SDS011;72373;50.562;8.498;2023-12-14T09:24:05;24.52;;;11.48;;
23080;SDS011;72373;50.562;8.498;2023-12-14T09:26:30;24.73;;;12.80;;
23080;SDS011;72373;50.562;8.498;2023-12-14T09:28:56;22.30;;;11.27;;
23080;SDS011;72373;50.562;8.498;2023-12-14T09:31:21;23.42;;;11.82;;
23080;SDS011;72373;50.562;8.498;2023-12-14T09:33:47;19.05;;;10.70;;
23080;SDS011;72373;50.562;8.498;2023-12-14T09:36:12;23.10;;;12.43;;
23080;SDS011;72373;50.562;8.498;2023-12-14T09:38:38;20.20;;;10.45;;
23080;SDS011;72373;50.562;8.498;2023-12-14T09:41:04;21.60;;;10.38;;
23080;SDS011;72373;50.562;8.498;2023-12-14T09:43:32;21.77;;;10.60;;
23080;SDS011;72373;50.562;8.498;2023-12-14T09:45:58;19.13;;;9.80;;
23080;SDS011;72373;50.562;8.498;2023-12-14T09:48:24;20.50;;;11.00;;
23080;SDS011;72373;50.562;8.498;2023-12-14T09:50:50;21.08;;;9.85;;
23080;SDS011;72373;50.562;8.498;2023-12-14T09:53:16;19.27;;;9.68;;
23080;SDS011;72373;50.562;8.498;2023-12-14T09:55:43;17.50;;;10.05;;
23080;SDS011;72373;50.562;8.498;2023-12-14T09:58:09;20.95;;;10.15;;
23080;SDS011;72373;50.562;8.498;2023-12-14T10:00:36;19.02;;;9.35;;
23080;SDS011;72373;50.562;8.498;2023-12-14T10:05:52;17.75;;;9.02;;
23080;SDS011;72373;50.562;8.498;2023-12-14T10:08:18;17.15;;;8.70;;
23080;SDS011;72373;50.562;8.498;2023-12-14T10:10:46;12.57;;;7.15;;
23080;SDS011;72373;50.562;8.498;2023-12-14T10:13:14;12.27;;;6.53;;
23080;SDS011;72373;50.562;8.498;2023-12-14T10:15:40;7.35;;;4.70;;
23080;SDS011;72373;50.562;8.498;2023-12-14T10:18:07;5.45;;;3.60;;
23080;SDS011;72373;50.562;8.498;2023-12-14T10:20:32;5.82;;;3.10;;
23080;SDS011;72373;50.562;8.498;2023-12-14T10:22:58;4.93;;;2.90;;
23080;SDS011;72373;50.562;8.498;2023-12-14T10:25:24;5.78;;;3.10;;
23080;SDS011;72373;50.562;8.498;2023-12-14T10:27:50;4.93;;;3.20;;
23080;SDS011;72373;50.562;8.498;2023-12-14T10:30:17;6.85;;;4.40;;
23080;SDS011;72373;50.562;8.498;2023-12-14T10:32:44;9.15;;;4.35;;
23080;SDS011;72373;50.562;8.498;2023-12-14T10:35:12;6.93;;;4.72;;
23080;SDS011;72373;50.562;8.498;2023-12-14T10:37:38;8.40;;;4.68;;
23080;SDS011;72373;50.562;8.498;2023-12-14T10:40:07;8.70;;;4.13;;
23080;SDS011;72373;50.562;8.498;2023-12-14T10:42:35;8.10;;;4.85;;
23080;SDS011;72373;50.562;8.498;2023-12-14T10:45:02;9.02;;;4.95;;
23080;SDS011;72373;50.562;8.498;2023-12-14T10:47:28;7.30;;;4.50;;
23080;SDS011;72373;50.562;8.498;2023-12-14T10:49:53;8.20;;;4.88;;
23080;SDS011;72373;50.562;8.498;2023-12-14T10:52:20;8.70;;;5.38;;
23080;SDS011;72373;50.562;8.498;2023-12-14T10:54:47;8.05;;;5.50;;
23080;SDS011;72373;50.562;8.498;2023-12-14T10:57:17;6.35;;;4.28;;
23080;SDS011;72373;50.562;8.498;2023-12-14T10:59:43;8.68;;;4.88;;
23080;SDS011;72373;50.562;8.498;2023-12-14T11:02:09;9.00;;;4.80;;
23080;SDS011;72373;50.562;8.498;2023-12-14T11:10:09;9.38;;;5.40;;
23080;SDS011;72373;50.562;8.498;2023-12-14T11:12:36;11.45;;;5.15;;
23080;SDS011;72373;50.562;8.498;2023-12-14T11:15:02;9.68;;;5.15;;
23080;SDS011;72373;50.562;8.498;2023-12-14T11:17:29;12.38;;;5.55;;
23080;SDS011;72373;50.562;8.498;2023-12-14T11:19:55;7.70;;;4.72;;
23080;SDS011;72373;50.562;8.498;2023-12-14T11:22:24;10.93;;;5.15;;
23080;SDS011;72373;50.562;8.498;2023-12-14T11:24:53;7.13;;;4.20;;
23080;SDS011;72373;50.562;8.498;2023-12-14T11:27:20;5.90;;;3.88;;
23080;SDS011;72373;50.562;8.498;2023-12-14T11:29:52;7.65;;;4.00;;
23080;SDS011;72373;50.562;8.498;2023-12-14T11:32:18;5.82;;;3.45;;
23080;SDS011;72373;50.562;8.498;2023-12-14T11:34:45;4.85;;;3.40;;
23080;SDS011;72373;50.562;8.498;2023-12-14T11:37:12;6.50;;;3.28;;
23080;SDS011;72373;50.562;8.498;2023-12-14T11:39:37;4.70;;;3.53;;
23080;SDS011;72373;50.562;8.498;2023-12-14T11:42:04;4.50;;;3.30;;
23080;SDS011;72373;50.562;8.498;2023-12-14T11:44:31;6.07;;;2.90;;
23080;SDS011;72373;50.562;8.498;2023-12-14T11:46:57;3.67;;;2.53;;
23080;SDS011;72373;50.562;8.498;2023-12-14T11:49:25;5.03;;;2.70;;
23080;SDS011;72373;50.562;8.498;2023-12-14T11:51:52;4.90;;;2.10;;
23080;SDS011;72373;50.562;8.498;2023-12-14T11:54:19;2.55;;;1.90;;
23080;SDS011;72373;50.562;8.498;2023-12-14T11:56:46;4.30;;;2.30;;
23080;SDS011;72373;50.562;8.498;2023-12-14T11:59:16;7.85;;;2.33;;
23080;SDS011;72373;50.562;8.498;2023-12-14T12:01:55;2.38;;;1.90;;
23080;SDS011;72373;50.562;8.498;2023-12-14T12:04:24;3.47;;;2.20;;
23080;SDS011;72373;50.562;8.498;2023-12-14T12:06:58;3.63;;;2.08;;
23080;SDS011;72373;50.562;8.498;2023-12-14T12:09:34;3.67;;;2.53;;
23080;SDS011;72373;50.562;8.498;2023-12-14T12:12:01;3.58;;;2.70;;
23080;SDS011;72373;50.562;8.498;2023-12-14T12:14:30;5.18;;;2.88;;
23080;SDS011;72373;50.562;8.498;2023-12-14T12:16:56;7.43;;;4.38;;
23080;SDS011;72373;50.562;8.498;2023-12-14T12:19:21;3.95;;;2.92;;
23080;SDS011;72373;50.562;8.498;2023-12-14T12:21:47;5.68;;;3.03;;
23080;SDS011;72373;50.562;8.498;2023-12-14T12:24:12;4.90;;;3.53;;
23080;SDS011;72373;50.562;8.498;2023-12-14T12:26:38;7.95;;;4.40;;
23080;SDS011;72373;50.562;8.498;2023-12-14T12:29:03;8.32;;;4.35;;
23080;SDS011;72373;50.562;8.498;2023-12-14T12:31:31;6.57;;;4.13;;
23080;SDS011;72373;50.562;8.498;2023-12-14T12:33:56;6.22;;;4.13;;
23080;SDS011;72373;50.562;8.498;2023-12-14T12:36:22;6.68;;;4.47;;
23080;SDS011;72373;50.562;8.498;2023-12-14T12:38:47;7.13;;;4.00;;
23080;SDS011;72373;50.562;8.498;2023-12-14T12:41:13;8.85;;;4.50;;
23080;SDS011;72373;50.562;8.498;2023-12-14T12:43:39;8.43;;;4.75;;
23080;SDS011;72373;50.562;8.498;2023-12-14T12:46:04;6.15;;;4.05;;
23080;SDS011;72373;50.562;8.498;2023-12-14T12:48:30;5.32;;;3.42;;
23080;SDS011;72373;50.562;8.498;2023-12-14T12:50:55;4.13;;;2.97;;
23080;SDS011;72373;50.562;8.498;2023-12-14T12:53:21;4.00;;;2.90;;
23080;SDS011;72373;50.562;8.498;2023-12-14T12:55:46;4.53;;;2.50;;
23080;SDS011;72373;50.562;8.498;2023-12-14T12:58:12;5.85;;;3.10;;
23080;SDS011;72373;50.562;8.498;2023-12-14T13:00:39;5.00;;;2.97;;
23080;SDS011;72373;50.562;8.498;2023-12-14T13:03:05;3.55;;;2.58;;
23080;SDS011;72373;50.562;8.498;2023-12-14T13:05:30;3.58;;;2.63;;
23080;SDS011;72373;50.562;8.498;2023-12-14T13:07:56;2.30;;;1.90;;
23080;SDS011;72373;50.562;8.498;2023-12-14T13:10:22;2.67;;;1.98;;
23080;SDS011;72373;50.562;8.498;2023-12-14T13:12:53;3.08;;;2.00;;
23080;SDS011;72373;50.562;8.498;2023-12-14T13:15:19;2.38;;;1.92;;
23080;SDS011;72373;50.562;8.498;2023-12-14T13:17:44;3.83;;;2.35;;
23080;SDS011;72373;50.562;8.498;2023-12-14T13:20:10;4.35;;;2.50;;
23080;SDS011;72373;50.562;8.498;2023-12-14T13:22:35;3.55;;;2.35;;
23080;SDS011;72373;50.562;8.498;2023-12-14T13:25:01;3.45;;;2.80;;
23080;SDS011;72373;50.562;8.498;2023-12-14T13:27:28;3.00;;;2.50;;
23080;SDS011;72373;50.562;8.498;2023-12-14T13:29:53;4.57;;;2.60;;
23080;SDS011;72373;50.562;8.498;2023-12-14T13:32:20;3.78;;;2.58;;
23080;SDS011;72373;50.562;8.498;2023-12-14T13:34:46;3.88;;;2.92;;
23080;SDS011;72373;50.562;8.498;2023-12-14T13:37:11;3.65;;;2.75;;
23080;SDS011;72373;50.562;8.498;2023-12-14T13:39:38;3.13;;;2.40;;
23080;SDS011;72373;50.562;8.498;2023-12-14T13:42:04;4.25;;;2.78;;
23080;SDS011;72373;50.562;8.498;2023-12-14T13:44:31;3.65;;;2.67;;
23080;SDS011;72373;50.562;8.498;2023-12-14T13:47:03;3.33;;;2.10;;
23080;SDS011;72373;50.562;8.498;2023-12-14T13:49:29;3.55;;;2.40;;
23080;SDS011;72373;50.562;8.498;2023-12-14T13:51:54;3.42;;;2.80;;
23080;SDS011;72373;50.562;8.498;2023-12-14T13:54:20;4.22;;;2.60;;
23080;SDS011;72373;50.562;8.498;2023-12-14T13:56:45;5.22;;;2.67;;
23080;SDS011;72373;50.562;8.498;2023-12-14T13:59:11;4.60;;;2.83;;
23080;SDS011;72373;50.562;8.498;2023-12-14T14:01:36;2.97;;;2.17;;
23080;SDS011;72373;50.562;8.498;2023-12-14T14:04:02;5.10;;;2.38;;
23080;SDS011;72373;50.562;8.498;2023-12-14T14:06:28;3.53;;;2.38;;
23080;SDS011;72373;50.562;8.498;2023-12-14T14:08:54;4.20;;;2.42;;
23080;SDS011;72373;50.562;8.498;2023-12-14T14:11:20;3.88;;;2.70;;
23080;SDS011;72373;50.562;8.498;2023-12-14T14:13:46;5.10;;;2.60;;
23080;SDS011;72373;50.562;8.498;2023-12-14T14:16:11;4.53;;;2.90;;
23080;SDS011;72373;50.562;8.498;2023-12-14T14:18:37;5.40;;;2.97;;
23080;SDS011;72373;50.562;8.498;2023-12-14T14:21:02;4.78;;;2.72;;
23080;SDS011;72373;50.562;8.498;2023-12-14T14:23:32;4.93;;;2.97;;
23080;SDS011;72373;50.562;8.498;2023-12-14T14:25:58;5.47;;;2.90;;
23080;SDS011;72373;50.562;8.498;2023-12-14T14:28:23;4.82;;;2.67;;
23080;SDS011;72373;50.562;8.498;2023-12-14T14:30:49;5.80;;;2.83;;
23080;SDS011;72373;50.562;8.498;2023-12-14T14:33:15;4.93;;;2.95;;
23080;SDS011;72373;50.562;8.498;2023-12-14T14:35:43;5.43;;;2.72;;
23080;SDS011;72373;50.562;8.498;2023-12-14T14:38:10;5.70;;;3.22;;
23080;SDS011;72373;50.562;8.498;2023-12-14T14:40:36;4.95;;;2.70;;